Portada
METAR-TAF:

METAR-TAF

Aeroports :

Pago Pago, Illes Perifèriques Menors dels EUA

latitud: 14-20S, longitud: 170-43W, altitud: 3 m

Observació

L'informe es va fer fa 34 minuts, a les 03:00 UTC
Vent 9 kt del Sud/Sud-Est
Temperatura 28°C
Humitat 70%
Pressió 1012 hPa
Visibilitat: 19.3 km
Escasses núvols a una alçada de 2200 ft
Núvols disperses a una alçada de 4500 ft
Núvols disperses a una alçada de 12000 ft

METAR: NSTU 180300Z 15009KT 12SM FEW022 SCT045 SCT120 28/22 A2989 RMK SLP122 8/870 T02810222 55005

Hora: 16:34 (03:34 UTC)

Pronòstic

L'informe es va fer fa 4 hores i 5 minuts, a les 23:29 UTC
Pronòstic vàlid del 18 a les 00 UTC al 18 a les 24 UTC
Vent 12 kt del Sud/Sud-Est
Visibilitat: 10 km
Núvols disperses a una alçada de 1500 ft
Cel ennuvolat a una alçada de 4000 ft

TAF: NSTU 172329Z 1800/1824 15012KT P6SM SCT015 BKN040

Observacions i pronòstics meteorològics de més de 4000 aeroports (METAR i TAF).

Les estacions disponibles són els punts grocs i vermells al mapa.

Posi el ratolí al punt desitjat per veure el nom de l'estació.

Feu clic per veure les observacions i els pronòstics meteorològics.

Per canviar el mapa: feu clic els botons verds amb una creu de color negre per apropar; al botó verd amb un guió per allunyar la imatge; o en les fletxes verdes per a mapes adjacents.


METAR-TAF: